createdAt,value
2022-12-25T00:04:43.138Z,91984.66
2022-12-25T00:14:56.110Z,91991.44
2022-12-25T00:25:09.115Z,91978.00
2022-12-25T00:35:22.100Z,91959.44
2022-12-25T00:45:35.162Z,91889.63
2022-12-25T00:55:48.106Z,91840.78
2022-12-25T01:06:09.191Z,91755.72
2022-12-25T01:16:24.169Z,91588.97
2022-12-25T01:26:37.201Z,91522.09
2022-12-25T01:36:57.170Z,91478.00
2022-12-25T01:47:16.180Z,91470.72
2022-12-25T01:57:40.160Z,91455.28
2022-12-25T02:07:54.206Z,91467.66
2022-12-25T02:18:10.188Z,91406.59
2022-12-25T02:28:34.212Z,91440.44
2022-12-25T02:39:11.185Z,91454.75
2022-12-25T02:49:52.211Z,91490.22
2022-12-25T03:00:25.191Z,91484.00
2022-12-25T03:10:57.247Z,91492.09
2022-12-25T03:21:29.191Z,91530.28
2022-12-25T03:31:44.214Z,91593.13
2022-12-25T03:42:19.269Z,91620.97
2022-12-25T03:52:57.252Z,91675.00
2022-12-25T04:03:28.400Z,91714.78
2022-12-25T04:14:00.276Z,91736.53
2022-12-25T04:24:32.310Z,91768.34
2022-12-25T04:35:03.282Z,91807.72
2022-12-25T04:45:15.311Z,91854.59
2022-12-25T04:55:28.290Z,91891.81
2022-12-25T05:05:41.323Z,91900.88
2022-12-25T05:15:54.352Z,91921.81
2022-12-25T05:26:07.297Z,92047.19
2022-12-25T05:36:20.299Z,92163.47
2022-12-25T05:46:33.389Z,92244.50
2022-12-25T05:56:46.311Z,92292.50
2022-12-25T06:06:59.376Z,92331.63
2022-12-25T06:17:12.362Z,92386.56
2022-12-25T06:27:25.359Z,92440.94
2022-12-25T06:37:39.324Z,92442.88
2022-12-25T06:47:52.373Z,92472.59
2022-12-25T06:58:05.378Z,92465.75
2022-12-25T07:08:18.390Z,92473.78
2022-12-25T07:18:31.406Z,92441.84
2022-12-25T07:28:44.445Z,92373.59
2022-12-25T07:38:58.400Z,92222.16
2022-12-25T07:49:18.406Z,91978.81
2022-12-25T07:59:31.388Z,91839.56
2022-12-25T08:09:44.448Z,91539.16
2022-12-25T08:19:57.475Z,91457.75
2022-12-25T08:30:10.484Z,91313.81
2022-12-25T08:40:23.441Z,91367.44
2022-12-25T08:50:42.467Z,91903.22
2022-12-25T09:00:56.509Z,91904.41
2022-12-25T09:11:15.445Z,92077.22
2022-12-25T09:21:28.484Z,92212.72
2022-12-25T09:31:41.455Z,92245.25
2022-12-25T09:42:04.491Z,91632.50
2022-12-25T09:52:45.477Z,91347.06
2022-12-25T10:03:16.556Z,91575.50
2022-12-25T10:13:44.494Z,92140.34
2022-12-25T10:24:01.515Z,92754.44
2022-12-25T10:34:14.566Z,92922.06
2022-12-25T10:44:31.523Z,93309.47
2022-12-25T10:54:44.531Z,93337.06
2022-12-25T11:04:58.540Z,93048.84
2022-12-25T11:15:50.579Z,93164.84
2022-12-25T11:26:15.573Z,92723.34
2022-12-25T11:36:28.544Z,92846.94
2022-12-25T11:46:48.617Z,93011.16
2022-12-25T11:57:03.594Z,93068.69
2022-12-25T12:07:45.591Z,92911.31
2022-12-25T12:17:58.606Z,93064.16
2022-12-25T12:28:11.584Z,93023.06
2022-12-25T12:38:28.623Z,93197.00
2022-12-25T12:48:50.571Z,93112.72
2022-12-25T12:59:03.638Z,92820.81
2022-12-25T13:09:48.597Z,92874.59
2022-12-25T13:20:08.640Z,92853.50
2022-12-25T13:30:22.614Z,92861.84
2022-12-25T13:40:35.651Z,92876.41
2022-12-25T13:51:04.673Z,92820.53
2022-12-25T14:01:19.846Z,92583.63
2022-12-25T14:11:34.678Z,92414.25
2022-12-25T14:21:56.649Z,92250.50
2022-12-25T14:32:12.693Z,92159.47
2022-12-25T14:42:29.663Z,92007.00
2022-12-25T14:52:56.725Z,91846.34
2022-12-25T15:03:11.845Z,92034.91
2022-12-25T15:13:27.743Z,92146.31
2022-12-25T15:23:40.673Z,92419.28
2022-12-25T15:33:53.785Z,92587.50
2022-12-25T15:44:06.717Z,92639.41
2022-12-25T15:54:19.748Z,93440.97
2022-12-25T16:04:33.763Z,93678.31
2022-12-25T16:14:46.784Z,93938.44
2022-12-25T16:24:59.736Z,93968.78
2022-12-25T16:35:12.779Z,93958.38
2022-12-25T16:45:25.768Z,93869.28
2022-12-25T16:55:38.803Z,93808.34
2022-12-25T17:05:51.765Z,93684.16
2022-12-25T17:16:04.864Z,93584.31
2022-12-25T17:26:17.784Z,93320.53
2022-12-25T17:36:30.842Z,93082.44
2022-12-25T17:46:43.786Z,92921.16
2022-12-25T17:56:56.856Z,92782.47
2022-12-25T18:07:10.815Z,92689.22
2022-12-25T18:17:22.867Z,92661.53
2022-12-25T18:27:35.795Z,92592.13
2022-12-25T18:37:48.868Z,92530.31
2022-12-25T18:48:02.855Z,92399.44
2022-12-25T18:58:15.864Z,92216.84
2022-12-25T19:08:28.840Z,92217.72
2022-12-25T19:18:41.904Z,92222.62
2022-12-25T19:28:54.859Z,92209.97
2022-12-25T19:39:08.041Z,92192.16
2022-12-25T19:49:27.910Z,92155.06
2022-12-25T19:59:40.891Z,92205.63
2022-12-25T20:09:53.941Z,92168.13
2022-12-25T20:20:06.916Z,92129.81
2022-12-25T20:30:19.914Z,92106.09
2022-12-25T20:40:52.978Z,92108.38
2022-12-25T20:51:22.970Z,92083.69
2022-12-25T21:01:38.000Z,92061.56
2022-12-25T21:11:50.997Z,92026.00
2022-12-25T21:22:03.961Z,91986.00
2022-12-25T21:32:34.981Z,91966.97
2022-12-25T21:42:47.977Z,91909.81
2022-12-25T21:53:07.002Z,91743.97
2022-12-25T22:03:20.065Z,91738.25
2022-12-25T22:13:50.993Z,91754.78
2022-12-25T22:24:03.983Z,91747.28
2022-12-25T22:34:17.045Z,91739.41
2022-12-25T22:44:35.013Z,91755.56
2022-12-25T22:54:48.031Z,91749.25
2022-12-25T23:05:00.999Z,91726.97
2022-12-25T23:15:14.052Z,91713.00
2022-12-25T23:25:46.011Z,91703.75
2022-12-25T23:35:59.070Z,91783.09
2022-12-25T23:46:12.121Z,91765.38
2022-12-25T23:56:25.048Z,91780.09
